createdAt,value
2023-01-21T00:00:40.573Z,63.49
2023-01-21T00:02:44.890Z,63.48
2023-01-21T00:04:47.888Z,63.21
2023-01-21T00:06:51.820Z,63.72
2023-01-21T00:08:54.372Z,63.64
2023-01-21T00:10:57.206Z,63.74
2023-01-21T00:12:59.749Z,63.65
2023-01-21T00:15:02.307Z,63.98
2023-01-21T00:17:04.889Z,63.49
2023-01-21T00:19:07.514Z,63.79
2023-01-21T00:21:10.602Z,63.88
2023-01-21T00:23:14.503Z,64.01
2023-01-21T00:25:17.256Z,63.99
2023-01-21T00:27:19.852Z,63.71
2023-01-21T00:29:22.515Z,63.88
2023-01-21T00:31:25.268Z,63.66
2023-01-21T00:33:28.593Z,63.75
2023-01-21T00:35:31.292Z,63.97
2023-01-21T00:37:33.926Z,63.42
2023-01-21T00:39:42.619Z,63.52
2023-01-21T00:41:45.209Z,63.47
2023-01-21T00:43:47.806Z,63.96
2023-01-21T00:45:50.380Z,64.30
2023-01-21T00:47:52.969Z,63.81
2023-01-21T00:49:55.628Z,63.96
2023-01-21T00:51:58.802Z,64.20
2023-01-21T00:54:01.398Z,64.07
2023-01-21T00:56:07.703Z,63.93
2023-01-21T00:58:10.709Z,64.11
2023-01-21T01:00:15.177Z,63.65
2023-01-21T01:02:17.966Z,63.50
2023-01-21T01:04:20.584Z,63.77
2023-01-21T01:06:24.662Z,63.46
2023-01-21T01:08:27.243Z,63.88
2023-01-21T01:10:29.786Z,63.91
2023-01-21T01:12:33.717Z,64.05
2023-01-21T01:14:37.225Z,64.34
2023-01-21T01:16:39.819Z,64.36
2023-01-21T01:18:42.418Z,64.36
2023-01-21T01:20:47.316Z,64.75
2023-01-21T01:22:49.875Z,64.38
2023-01-21T01:24:52.449Z,64.42
2023-01-21T01:26:55.012Z,64.17
2023-01-21T01:28:58.919Z,63.96
2023-01-21T01:31:02.179Z,63.89
2023-01-21T01:33:05.070Z,63.80
2023-01-21T01:35:08.254Z,63.71
2023-01-21T01:37:10.875Z,63.89
2023-01-21T01:39:13.465Z,63.94
2023-01-21T01:41:18.197Z,63.91
2023-01-21T01:43:22.844Z,63.63
2023-01-21T01:45:26.864Z,63.43
2023-01-21T01:47:33.320Z,63.52
2023-01-21T01:49:36.011Z,62.85
2023-01-21T01:51:45.419Z,63.10
2023-01-21T01:53:49.261Z,63.49
2023-01-21T01:55:52.824Z,63.49
2023-01-21T01:57:56.319Z,63.30
2023-01-21T02:00:01.903Z,63.31
2023-01-21T02:02:08.575Z,63.20
2023-01-21T02:04:13.986Z,63.53
2023-01-21T02:06:18.359Z,63.49
2023-01-21T02:08:21.253Z,63.76
2023-01-21T02:10:23.793Z,63.48
2023-01-21T02:12:26.643Z,63.58
2023-01-21T02:14:30.586Z,63.75
2023-01-21T02:16:56.406Z,63.54
2023-01-21T02:19:14.188Z,63.70
2023-01-21T02:21:43.174Z,63.91
2023-01-21T02:24:11.498Z,64.15
2023-01-21T02:26:49.686Z,64.01
2023-01-21T02:29:17.137Z,64.22
2023-01-21T02:31:37.101Z,64.24
2023-01-21T02:33:53.404Z,64.43
2023-01-21T02:36:08.506Z,64.21
2023-01-21T02:38:20.986Z,63.78
2023-01-21T02:40:30.293Z,63.80
2023-01-21T02:42:42.076Z,63.27
2023-01-21T02:44:47.719Z,63.13
2023-01-21T02:46:54.583Z,63.44
2023-01-21T02:49:01.893Z,63.51
2023-01-21T02:51:06.204Z,63.67
2023-01-21T02:53:19.903Z,63.66
2023-01-21T02:55:27.639Z,63.74
2023-01-21T02:57:38.007Z,63.52
2023-01-21T02:59:45.413Z,63.28
2023-01-21T03:02:00.505Z,63.44
2023-01-21T03:04:39.288Z,63.81
2023-01-21T03:07:00.541Z,63.65
2023-01-21T03:09:12.259Z,63.76
2023-01-21T03:11:16.074Z,63.38
2023-01-21T03:13:44.120Z,63.71
2023-01-21T03:16:10.288Z,63.64
2023-01-21T03:18:19.655Z,63.29
2023-01-21T03:20:27.476Z,63.63
2023-01-21T03:22:35.089Z,63.65
2023-01-21T03:24:39.447Z,63.45
2023-01-21T03:26:46.795Z,63.32
2023-01-21T03:28:52.828Z,63.31
2023-01-21T03:31:00.474Z,62.95
2023-01-21T03:33:04.760Z,63.50
2023-01-21T03:35:09.780Z,63.31
2023-01-21T03:37:19.387Z,63.49
2023-01-21T03:39:30.216Z,63.55
2023-01-21T03:41:36.778Z,63.63
2023-01-21T03:43:40.053Z,63.75
2023-01-21T03:45:49.709Z,63.80
2023-01-21T03:47:58.380Z,63.64
2023-01-21T03:50:06.671Z,63.42
2023-01-21T03:52:11.225Z,63.52
2023-01-21T03:54:15.305Z,63.39
2023-01-21T03:56:17.903Z,63.66
2023-01-21T03:58:20.489Z,63.53
2023-01-21T04:00:23.497Z,63.22
2023-01-21T04:02:26.271Z,63.31
2023-01-21T04:04:28.950Z,63.27
2023-01-21T04:06:31.621Z,63.54
2023-01-21T04:08:34.186Z,63.65
2023-01-21T04:10:38.132Z,63.62
2023-01-21T04:12:40.761Z,63.48
2023-01-21T04:14:43.424Z,63.21
2023-01-21T04:16:46.068Z,63.57
2023-01-21T04:18:48.853Z,63.28
2023-01-21T04:20:51.429Z,62.95
2023-01-21T04:22:54.056Z,63.50
2023-01-21T04:24:56.674Z,63.43
2023-01-21T04:27:00.558Z,63.43
2023-01-21T04:29:03.194Z,63.55
2023-01-21T04:31:05.979Z,63.40
2023-01-21T04:33:08.618Z,63.44
2023-01-21T04:35:11.367Z,63.39
2023-01-21T04:37:13.980Z,63.89
2023-01-21T04:39:16.759Z,63.39
2023-01-21T04:41:19.464Z,63.21
2023-01-21T04:43:23.368Z,63.43
2023-01-21T04:45:26.059Z,63.33
2023-01-21T04:47:28.731Z,63.34
2023-01-21T04:49:31.289Z,63.29
2023-01-21T04:51:33.844Z,63.69
2023-01-21T04:53:36.462Z,63.08
2023-01-21T04:55:39.075Z,63.40
2023-01-21T04:57:41.641Z,63.29
2023-01-21T04:59:45.583Z,63.02
2023-01-21T05:01:48.146Z,63.49
2023-01-21T05:03:50.711Z,63.09
2023-01-21T05:05:53.293Z,63.37
2023-01-21T05:07:56.126Z,63.33
2023-01-21T05:09:58.706Z,63.71
2023-01-21T05:12:01.285Z,63.54
2023-01-21T05:14:03.848Z,63.39
2023-01-21T05:16:09.979Z,63.31
2023-01-21T05:18:12.626Z,63.40
2023-01-21T05:20:15.730Z,63.16
2023-01-21T05:22:18.581Z,63.15
2023-01-21T05:24:21.190Z,62.92
2023-01-21T05:26:23.765Z,63.47
2023-01-21T05:28:26.810Z,63.69
2023-01-21T05:30:29.487Z,63.80
2023-01-21T05:32:33.485Z,63.64
2023-01-21T05:34:36.069Z,63.82
2023-01-21T05:36:39.306Z,63.72
2023-01-21T05:38:42.037Z,63.91
2023-01-21T05:40:44.611Z,63.43
2023-01-21T05:42:48.169Z,64.08
2023-01-21T05:44:50.741Z,64.12
2023-01-21T05:46:53.497Z,63.70
2023-01-21T05:48:57.365Z,63.61
2023-01-21T05:51:00.358Z,63.45
2023-01-21T05:53:02.940Z,63.72
2023-01-21T05:55:06.503Z,63.59
2023-01-21T05:57:09.057Z,63.15
2023-01-21T05:59:11.631Z,63.09
2023-01-21T06:01:14.215Z,63.04
2023-01-21T06:03:17.766Z,62.98
2023-01-21T06:05:21.722Z,63.43
2023-01-21T06:07:24.284Z,63.75
2023-01-21T06:09:26.916Z,63.97
2023-01-21T06:11:29.457Z,64.03
2023-01-21T06:13:32.005Z,63.88
2023-01-21T06:15:34.664Z,64.10
2023-01-21T06:17:39.728Z,63.90
2023-01-21T06:19:42.335Z,64.09
2023-01-21T06:21:46.267Z,63.65
2023-01-21T06:23:48.800Z,63.62
2023-01-21T06:25:51.350Z,63.53
2023-01-21T06:27:55.782Z,63.60
2023-01-21T06:29:58.377Z,63.34
2023-01-21T06:32:00.984Z,63.56
2023-01-21T06:34:03.699Z,63.54
2023-01-21T06:36:06.911Z,63.36
2023-01-21T06:38:10.935Z,63.51
2023-01-21T06:40:14.652Z,64.24
2023-01-21T06:42:17.877Z,64.44
2023-01-21T06:44:20.432Z,64.16
2023-01-21T06:46:23.150Z,64.76
2023-01-21T06:48:25.868Z,64.31
2023-01-21T06:50:28.435Z,64.52
2023-01-21T06:52:30.988Z,64.32
2023-01-21T06:54:34.888Z,64.29
2023-01-21T06:56:38.284Z,64.44
2023-01-21T06:58:40.918Z,64.25
2023-01-21T07:00:43.509Z,64.24
2023-01-21T07:02:46.214Z,64.52
2023-01-21T07:04:50.827Z,65.25
2023-01-21T07:06:53.539Z,65.33
2023-01-21T07:08:56.104Z,65.51
2023-01-21T07:11:00.007Z,65.16
2023-01-21T07:13:02.645Z,65.68
2023-01-21T07:15:06.473Z,65.74
2023-01-21T07:17:09.025Z,65.68
2023-01-21T07:19:12.466Z,65.77
2023-01-21T07:21:15.072Z,66.13
2023-01-21T07:23:17.686Z,66.07
2023-01-21T07:25:20.559Z,65.96
2023-01-21T07:27:24.497Z,65.95
2023-01-21T07:29:28.009Z,66.11
2023-01-21T07:31:30.707Z,65.71
2023-01-21T07:33:33.346Z,65.57
2023-01-21T07:35:36.662Z,65.60
2023-01-21T07:37:39.206Z,65.54
2023-01-21T07:39:41.812Z,65.28
2023-01-21T07:41:44.418Z,65.40
2023-01-21T07:43:49.124Z,65.38
2023-01-21T07:45:51.870Z,65.14
2023-01-21T07:47:54.421Z,65.45
2023-01-21T07:49:57.058Z,65.49
2023-01-21T07:51:59.819Z,65.83
2023-01-21T07:54:02.395Z,65.83
2023-01-21T07:56:05.504Z,66.31
2023-01-21T07:58:08.097Z,66.46
2023-01-21T08:00:13.559Z,66.45
2023-01-21T08:02:16.264Z,66.54
2023-01-21T08:04:18.903Z,67.02
2023-01-21T08:06:21.455Z,67.02
2023-01-21T08:08:24.021Z,66.99
2023-01-21T08:10:27.196Z,67.14
2023-01-21T08:12:29.744Z,67.30
2023-01-21T08:14:32.458Z,67.49
2023-01-21T08:16:36.511Z,67.29
2023-01-21T08:18:39.123Z,67.28
2023-01-21T08:20:41.709Z,67.33
2023-01-21T08:22:44.296Z,67.36
2023-01-21T08:24:47.165Z,67.73
2023-01-21T08:26:49.849Z,67.50
2023-01-21T08:28:54.420Z,67.84
2023-01-21T08:31:04.161Z,68.02
2023-01-21T08:33:08.134Z,68.18
2023-01-21T08:35:11.084Z,67.72
2023-01-21T08:37:13.687Z,67.97
2023-01-21T08:39:16.459Z,68.13
2023-01-21T08:41:19.066Z,68.39
2023-01-21T08:43:21.611Z,68.40
2023-01-21T08:45:24.206Z,68.32
2023-01-21T08:47:29.015Z,68.42
2023-01-21T08:49:32.958Z,68.36
2023-01-21T08:51:35.680Z,68.21
2023-01-21T08:53:38.304Z,68.29
2023-01-21T08:55:40.905Z,68.35
2023-01-21T08:57:43.462Z,67.97
2023-01-21T08:59:46.045Z,68.07
2023-01-21T09:01:48.625Z,68.04
2023-01-21T09:03:55.384Z,68.03
2023-01-21T09:06:02.662Z,68.15
2023-01-21T09:08:05.242Z,68.28
2023-01-21T09:10:09.049Z,68.40
2023-01-21T09:12:11.622Z,68.24
2023-01-21T09:14:14.211Z,68.47
2023-01-21T09:16:19.654Z,68.48
2023-01-21T09:18:22.305Z,68.29
2023-01-21T09:20:24.851Z,68.44
2023-01-21T09:22:28.859Z,68.64
2023-01-21T09:24:31.592Z,68.92
2023-01-21T09:26:34.228Z,69.08
2023-01-21T09:28:38.588Z,69.05
2023-01-21T09:30:41.163Z,69.18
2023-01-21T09:32:43.762Z,69.09
2023-01-21T09:34:46.336Z,69.71
2023-01-21T09:36:48.896Z,69.49
2023-01-21T09:38:52.956Z,69.90
2023-01-21T09:40:57.055Z,69.61
2023-01-21T09:43:04.236Z,70.12
2023-01-21T09:45:07.689Z,70.08
2023-01-21T09:47:18.951Z,70.02
2023-01-21T09:49:25.169Z,70.18
2023-01-21T09:51:35.914Z,70.36
2023-01-21T09:53:45.900Z,69.22
2023-01-21T09:55:51.211Z,69.50
2023-01-21T09:58:11.324Z,69.06
2023-01-21T10:00:25.183Z,69.73
2023-01-21T10:02:33.315Z,69.58
2023-01-21T10:04:46.871Z,69.42
2023-01-21T10:06:54.809Z,69.48
2023-01-21T10:09:11.879Z,69.44
2023-01-21T10:11:28.062Z,69.77
2023-01-21T10:13:41.982Z,69.43
2023-01-21T10:15:54.164Z,69.86
2023-01-21T10:18:00.420Z,69.36
2023-01-21T10:20:13.694Z,69.85
2023-01-21T10:22:20.334Z,70.08
2023-01-21T10:24:26.660Z,69.96
2023-01-21T10:26:34.909Z,69.85
2023-01-21T10:28:40.094Z,69.93
2023-01-21T10:30:45.789Z,70.07
2023-01-21T10:32:52.215Z,70.43
2023-01-21T10:34:56.298Z,70.08
2023-01-21T10:37:10.062Z,70.38
2023-01-21T10:39:24.116Z,70.05
2023-01-21T10:41:43.529Z,69.71
2023-01-21T10:43:50.408Z,69.84
2023-01-21T10:46:03.692Z,70.28
2023-01-21T10:48:14.479Z,70.29
2023-01-21T10:50:29.595Z,70.63
2023-01-21T10:52:38.876Z,70.53
2023-01-21T10:54:50.065Z,70.65
2023-01-21T10:57:04.918Z,70.94
2023-01-21T10:59:11.734Z,70.52
2023-01-21T11:01:21.911Z,71.63
2023-01-21T11:03:33.536Z,70.82
2023-01-21T11:05:36.654Z,71.19
2023-01-21T11:07:43.039Z,71.48
2023-01-21T11:09:48.544Z,71.22
2023-01-21T11:11:51.150Z,71.66
2023-01-21T11:13:56.105Z,71.41
2023-01-21T11:16:00.906Z,71.35
2023-01-21T11:18:29.084Z,71.49
2023-01-21T11:20:36.931Z,71.49
2023-01-21T11:22:43.591Z,71.52
2023-01-21T11:24:47.505Z,71.51
2023-01-21T11:26:52.048Z,71.78
2023-01-21T11:29:08.739Z,71.47
2023-01-21T11:31:14.422Z,72.10
2023-01-21T11:33:24.964Z,71.73
2023-01-21T11:35:29.150Z,71.71
2023-01-21T11:37:33.728Z,71.61
2023-01-21T11:39:39.921Z,71.82
2023-01-21T11:41:52.455Z,71.97
2023-01-21T11:43:58.396Z,71.75
2023-01-21T11:46:01.261Z,71.60
2023-01-21T11:48:20.441Z,71.85
2023-01-21T11:50:27.441Z,71.89
2023-01-21T11:52:31.400Z,72.05
2023-01-21T11:54:40.421Z,71.80
2023-01-21T11:56:53.260Z,72.25
2023-01-21T11:58:55.823Z,72.16
2023-01-21T12:01:01.095Z,72.24
2023-01-21T12:03:06.744Z,72.43
2023-01-21T12:05:16.883Z,72.44
2023-01-21T12:07:21.479Z,72.19
2023-01-21T12:09:27.240Z,72.61
2023-01-21T12:11:32.658Z,73.05
2023-01-21T12:13:45.894Z,72.55
2023-01-21T12:16:03.689Z,73.22
2023-01-21T12:18:21.972Z,73.02
2023-01-21T12:20:34.881Z,73.12
2023-01-21T12:22:50.360Z,72.95
2023-01-21T12:25:31.472Z,72.86
2023-01-21T12:27:41.775Z,73.31
2023-01-21T12:29:58.994Z,72.91
2023-01-21T12:32:06.805Z,73.36
2023-01-21T12:34:21.219Z,73.68
2023-01-21T12:36:30.655Z,73.11
2023-01-21T12:38:36.994Z,73.02
2023-01-21T12:40:48.155Z,73.78
2023-01-21T12:42:56.778Z,73.22
2023-01-21T12:45:02.941Z,73.39
2023-01-21T12:47:15.005Z,73.88
2023-01-21T12:49:22.143Z,73.61
2023-01-21T12:51:29.420Z,74.05
2023-01-21T12:53:41.333Z,74.02
2023-01-21T12:56:02.455Z,73.89
2023-01-21T12:58:09.528Z,74.35
2023-01-21T13:00:21.163Z,74.04
2023-01-21T13:02:29.598Z,73.91
2023-01-21T13:04:45.713Z,73.93
2023-01-21T13:06:54.811Z,74.75
2023-01-21T13:09:04.239Z,74.18
2023-01-21T13:11:18.455Z,74.19
2023-01-21T13:13:28.553Z,74.29
2023-01-21T13:15:34.152Z,74.78
2023-01-21T13:17:41.006Z,74.19
2023-01-21T13:19:43.605Z,74.54
2023-01-21T13:21:54.648Z,74.99
2023-01-21T13:24:04.373Z,74.60
2023-01-21T13:26:16.238Z,74.88
2023-01-21T13:28:29.943Z,74.16
2023-01-21T13:30:40.064Z,74.67
2023-01-21T13:32:48.553Z,74.50
2023-01-21T13:34:58.948Z,74.93
2023-01-21T13:37:10.967Z,75.04
2023-01-21T13:39:22.585Z,73.88
2023-01-21T13:41:47.063Z,74.41
2023-01-21T13:44:09.608Z,73.89
2023-01-21T13:46:28.153Z,74.36
2023-01-21T13:48:45.565Z,74.71
2023-01-21T13:51:03.743Z,74.18
2023-01-21T13:53:20.401Z,74.60
2023-01-21T13:55:34.114Z,74.08
2023-01-21T13:57:54.735Z,74.35
2023-01-21T14:00:04.668Z,74.58
2023-01-21T14:02:12.661Z,74.04
2023-01-21T14:04:23.023Z,74.22
2023-01-21T14:06:29.231Z,74.38
2023-01-21T14:08:37.285Z,74.09
2023-01-21T14:10:44.707Z,74.97
2023-01-21T14:13:28.029Z,74.35
2023-01-21T14:15:47.847Z,73.95
2023-01-21T14:18:13.777Z,74.37
2023-01-21T14:20:33.359Z,74.20
2023-01-21T14:22:51.379Z,73.84
2023-01-21T14:25:09.759Z,74.09
2023-01-21T14:27:23.995Z,74.42
2023-01-21T14:29:36.376Z,74.71
2023-01-21T14:31:44.207Z,74.81
2023-01-21T14:33:51.538Z,74.85
2023-01-21T14:36:02.344Z,74.79
2023-01-21T14:38:14.360Z,74.62
2023-01-21T14:40:20.592Z,75.16
2023-01-21T14:42:41.956Z,74.87
2023-01-21T14:45:02.304Z,74.84
2023-01-21T14:47:16.519Z,75.20
2023-01-21T14:49:41.307Z,75.40
2023-01-21T14:51:49.831Z,74.66
2023-01-21T14:53:58.063Z,75.34
2023-01-21T14:56:10.634Z,75.28
2023-01-21T14:58:23.067Z,75.73
2023-01-21T15:00:32.485Z,75.25
2023-01-21T15:02:40.707Z,75.82
2023-01-21T15:04:54.130Z,75.65
2023-01-21T15:06:59.018Z,75.99
2023-01-21T15:09:01.801Z,75.60
2023-01-21T15:11:06.275Z,75.25
2023-01-21T15:13:28.065Z,75.85
2023-01-21T15:15:34.937Z,75.83
2023-01-21T15:18:04.917Z,75.71
2023-01-21T15:20:39.898Z,76.45
2023-01-21T15:22:46.748Z,76.43
2023-01-21T15:25:20.183Z,76.14
2023-01-21T15:27:25.716Z,76.31
2023-01-21T15:29:34.704Z,75.79
2023-01-21T15:31:42.863Z,76.12
2023-01-21T15:33:50.862Z,76.55
2023-01-21T15:35:55.043Z,76.26
2023-01-21T15:38:05.218Z,76.81
2023-01-21T15:40:17.988Z,77.16
2023-01-21T15:42:27.943Z,77.03
2023-01-21T15:44:48.513Z,76.65
2023-01-21T15:46:59.825Z,76.96
2023-01-21T15:49:21.322Z,77.42
2023-01-21T15:51:32.408Z,77.05
2023-01-21T15:53:52.642Z,77.62
2023-01-21T15:56:08.822Z,77.26
2023-01-21T15:58:22.835Z,77.17
2023-01-21T16:00:34.687Z,76.74
2023-01-21T16:02:51.647Z,77.53
2023-01-21T16:05:05.652Z,77.68
2023-01-21T16:07:20.536Z,76.84
2023-01-21T16:09:33.709Z,77.38
2023-01-21T16:11:55.042Z,76.59
2023-01-21T16:14:13.080Z,77.16
2023-01-21T16:16:25.489Z,77.14
2023-01-21T16:18:31.584Z,76.78
2023-01-21T16:20:35.085Z,76.45
2023-01-21T16:22:41.061Z,76.48
2023-01-21T16:24:49.195Z,76.90
2023-01-21T16:26:51.783Z,76.46
2023-01-21T16:28:55.228Z,76.27
2023-01-21T16:30:59.760Z,77.09
2023-01-21T16:33:10.318Z,76.60
2023-01-21T16:35:12.843Z,75.71
2023-01-21T16:37:18.650Z,76.25
2023-01-21T16:39:21.260Z,76.27
2023-01-21T16:41:28.619Z,76.35
2023-01-21T16:43:31.680Z,77.04
2023-01-21T16:45:34.292Z,76.44
2023-01-21T16:47:37.951Z,77.10
2023-01-21T16:49:43.401Z,77.07
2023-01-21T16:51:54.052Z,76.78
2023-01-21T16:54:29.534Z,76.50
2023-01-21T16:56:33.481Z,76.14
2023-01-21T16:58:36.352Z,76.76
2023-01-21T17:00:38.969Z,76.22
2023-01-21T17:02:41.630Z,76.43
2023-01-21T17:04:44.224Z,76.54
2023-01-21T17:06:47.721Z,76.86
2023-01-21T17:08:55.010Z,76.63
2023-01-21T17:11:00.186Z,77.00
2023-01-21T17:13:06.808Z,76.40
2023-01-21T17:15:19.556Z,76.99
2023-01-21T17:17:24.412Z,76.22
2023-01-21T17:19:34.130Z,76.95
2023-01-21T17:21:41.757Z,76.45
2023-01-21T17:23:48.958Z,76.67
2023-01-21T17:25:56.321Z,76.74
2023-01-21T17:27:58.963Z,76.78
2023-01-21T17:30:31.273Z,76.37
2023-01-21T17:32:34.763Z,76.27
2023-01-21T17:34:39.845Z,76.19
2023-01-21T17:36:44.115Z,76.60
2023-01-21T17:38:47.906Z,76.50
2023-01-21T17:41:01.284Z,76.46
2023-01-21T17:43:16.355Z,75.98
2023-01-21T17:45:24.857Z,76.51
2023-01-21T17:47:30.803Z,76.26
2023-01-21T17:49:33.485Z,75.98
2023-01-21T17:51:36.600Z,75.85
2023-01-21T17:53:46.287Z,76.00
2023-01-21T17:55:58.863Z,75.84
2023-01-21T17:58:04.569Z,76.28
2023-01-21T18:00:25.812Z,76.30
2023-01-21T18:02:29.843Z,76.38
2023-01-21T18:04:32.543Z,75.90
2023-01-21T18:06:35.708Z,76.05
2023-01-21T18:08:38.263Z,76.61
2023-01-21T18:10:41.614Z,76.61
2023-01-21T18:12:44.170Z,76.32
2023-01-21T18:14:47.263Z,76.40
2023-01-21T18:16:50.185Z,76.16
2023-01-21T18:18:54.668Z,76.32
2023-01-21T18:20:57.522Z,75.70
2023-01-21T18:23:00.529Z,76.22
2023-01-21T18:25:05.169Z,76.13
2023-01-21T18:27:10.419Z,75.20
2023-01-21T18:29:12.955Z,75.32
2023-01-21T18:31:15.811Z,75.67
2023-01-21T18:33:18.748Z,75.90
2023-01-21T18:35:26.651Z,76.17
2023-01-21T18:37:29.226Z,75.79
2023-01-21T18:39:31.780Z,76.32
2023-01-21T18:41:34.334Z,75.51
2023-01-21T18:43:36.912Z,75.87
2023-01-21T18:45:40.240Z,75.86
2023-01-21T18:47:43.606Z,76.15
2023-01-21T18:49:49.274Z,75.79
2023-01-21T18:51:53.325Z,75.36
2023-01-21T18:53:55.883Z,75.98
2023-01-21T18:55:58.448Z,75.91
2023-01-21T18:58:02.380Z,75.78
2023-01-21T19:00:14.719Z,76.37
2023-01-21T19:02:19.813Z,76.31
2023-01-21T19:04:22.400Z,76.09
2023-01-21T19:06:26.019Z,75.96
2023-01-21T19:08:30.256Z,77.01
2023-01-21T19:10:33.056Z,76.41
2023-01-21T19:12:35.631Z,76.82
2023-01-21T19:14:38.236Z,76.59
2023-01-21T19:16:41.398Z,76.76
2023-01-21T19:18:43.997Z,77.29
2023-01-21T19:20:46.597Z,76.47
2023-01-21T19:22:50.139Z,77.12
2023-01-21T19:24:54.069Z,77.12
2023-01-21T19:26:56.658Z,77.15
2023-01-21T19:28:59.284Z,77.31
2023-01-21T19:31:02.017Z,76.73
2023-01-21T19:33:05.390Z,77.02
2023-01-21T19:35:09.064Z,76.91
2023-01-21T19:37:14.858Z,76.91
2023-01-21T19:39:22.826Z,77.36
2023-01-21T19:41:26.782Z,77.24
2023-01-21T19:43:29.589Z,76.92
2023-01-21T19:45:32.364Z,77.09
2023-01-21T19:47:35.016Z,76.31
2023-01-21T19:49:37.727Z,76.65
2023-01-21T19:51:40.271Z,77.13
2023-01-21T19:53:42.812Z,76.98
2023-01-21T19:55:46.681Z,76.75
2023-01-21T19:57:56.239Z,77.07
2023-01-21T19:59:59.561Z,76.93
2023-01-21T20:02:02.208Z,77.19
2023-01-21T20:04:04.810Z,77.61
2023-01-21T20:06:11.215Z,77.16
2023-01-21T20:08:22.184Z,77.11
2023-01-21T20:10:26.680Z,77.53
2023-01-21T20:12:29.224Z,76.80
2023-01-21T20:14:33.328Z,77.29
2023-01-21T20:16:46.839Z,77.05
2023-01-21T20:18:49.822Z,76.94
2023-01-21T20:20:53.167Z,77.61
2023-01-21T20:22:55.886Z,77.23
2023-01-21T20:24:58.439Z,77.14
2023-01-21T20:27:02.083Z,77.62
2023-01-21T20:29:07.041Z,77.42
2023-01-21T20:31:12.070Z,77.31
2023-01-21T20:33:18.333Z,77.54
2023-01-21T20:35:22.517Z,77.14
2023-01-21T20:37:25.654Z,77.06
2023-01-21T20:39:28.308Z,76.73
2023-01-21T20:41:30.995Z,77.44
2023-01-21T20:43:34.071Z,77.12
2023-01-21T20:45:41.995Z,77.09
2023-01-21T20:47:50.976Z,76.56
2023-01-21T20:49:53.533Z,76.92
2023-01-21T20:51:56.176Z,77.11
2023-01-21T20:53:58.772Z,77.17
2023-01-21T20:56:13.322Z,77.26
2023-01-21T20:58:17.221Z,76.73
2023-01-21T21:00:22.501Z,76.84
2023-01-21T21:02:25.180Z,76.90
2023-01-21T21:04:29.947Z,76.98
2023-01-21T21:06:33.476Z,77.14
2023-01-21T21:08:36.045Z,77.13
2023-01-21T21:10:38.659Z,77.27
2023-01-21T21:12:41.233Z,77.66
2023-01-21T21:14:43.861Z,77.08
2023-01-21T21:16:46.672Z,77.19
2023-01-21T21:18:49.820Z,77.36
2023-01-21T21:20:54.634Z,77.00
2023-01-21T21:22:57.202Z,77.54
2023-01-21T21:24:59.823Z,77.35
2023-01-21T21:27:03.547Z,77.64
2023-01-21T21:29:12.655Z,77.77
2023-01-21T21:31:17.147Z,77.62
2023-01-21T21:33:22.603Z,77.65
2023-01-21T21:35:28.588Z,77.69
2023-01-21T21:37:32.469Z,78.03
2023-01-21T21:39:35.038Z,77.51
2023-01-21T21:41:54.988Z,77.96
2023-01-21T21:43:57.517Z,77.35
2023-01-21T21:46:22.374Z,77.76
2023-01-21T21:48:42.374Z,77.53
2023-01-21T21:50:44.936Z,77.93
2023-01-21T21:52:48.826Z,77.62
2023-01-21T21:54:51.594Z,78.05
2023-01-21T21:56:54.102Z,77.78
2023-01-21T21:58:56.655Z,78.12
2023-01-21T22:01:07.771Z,77.46
2023-01-21T22:03:11.719Z,78.19
2023-01-21T22:05:14.415Z,77.31
2023-01-21T22:07:16.964Z,78.08
2023-01-21T22:09:20.960Z,78.09
2023-01-21T22:11:24.135Z,77.44
2023-01-21T22:13:27.527Z,77.61
2023-01-21T22:15:30.086Z,78.21
2023-01-21T22:17:35.535Z,77.86
2023-01-21T22:19:38.131Z,78.25
2023-01-21T22:21:40.847Z,77.76
2023-01-21T22:23:43.995Z,77.84
2023-01-21T22:25:47.960Z,77.66
2023-01-21T22:27:50.503Z,77.87
2023-01-21T22:29:53.044Z,77.64
2023-01-21T22:31:55.665Z,77.32
2023-01-21T22:33:59.686Z,77.10
2023-01-21T22:36:03.451Z,77.35
2023-01-21T22:38:06.556Z,77.66
2023-01-21T22:40:11.430Z,76.96
2023-01-21T22:42:15.363Z,77.70
2023-01-21T22:44:18.169Z,77.94
2023-01-21T22:46:22.377Z,77.30
2023-01-21T22:48:25.577Z,76.99
2023-01-21T22:50:28.288Z,77.60
2023-01-21T22:52:30.871Z,77.41
2023-01-21T22:54:33.433Z,77.77
2023-01-21T22:56:50.971Z,77.66
2023-01-21T22:58:58.737Z,77.62
2023-01-21T23:01:02.301Z,77.22
2023-01-21T23:03:05.695Z,77.63
2023-01-21T23:05:08.905Z,77.59
2023-01-21T23:07:11.646Z,77.53
2023-01-21T23:09:15.199Z,77.30
2023-01-21T23:11:21.775Z,77.27
2023-01-21T23:13:26.341Z,77.68
2023-01-21T23:15:30.513Z,77.96
2023-01-21T23:17:33.089Z,77.61
2023-01-21T23:19:35.653Z,77.20
2023-01-21T23:21:38.585Z,77.29
2023-01-21T23:23:41.154Z,77.21
2023-01-21T23:25:44.835Z,77.79
2023-01-21T23:27:47.411Z,77.48
2023-01-21T23:29:49.944Z,77.84
2023-01-21T23:31:53.968Z,77.92
2023-01-21T23:33:57.283Z,78.28
2023-01-21T23:36:00.836Z,78.08
2023-01-21T23:38:04.036Z,78.11
2023-01-21T23:40:08.213Z,77.73
2023-01-21T23:42:10.801Z,78.40
2023-01-21T23:44:13.354Z,77.99
2023-01-21T23:46:19.332Z,78.68
2023-01-21T23:48:24.583Z,78.10
2023-01-21T23:50:27.199Z,78.40
2023-01-21T23:52:29.756Z,78.58
2023-01-21T23:54:32.408Z,78.92
2023-01-21T23:56:35.008Z,77.94
2023-01-21T23:58:37.676Z,78.32
